Time;durP1;ratioP1;P1;durP2;ratioP2;P2;SDS_P1;SDS_P2;PMS_P1;PMS_P2;Temp;Humidity;BMP_temperature;BMP_pressure;BME280_temperature;BME280_humidity;BME280_pressure;Samples;Min_cycle;Max_cycle;Signal;HPM_P1;HPM_P2
2023/06/07 00:00:44;;;;;;;32.95;7.28;;;;;;;;;;5010337;28;20542;-73
2023/06/07 00:03:11;;;;;;;27.23;6.90;;;;;;;;;;5009630;28;20025;-72
2023/06/07 00:05:38;;;;;;;18.15;6.13;;;;;;;;;;5013015;28;20053;-71
2023/06/07 00:08:05;;;;;;;27.45;6.60;;;;;;;;;;5013088;28;20105;-71
2023/06/07 00:10:33;;;;;;;26.70;6.45;;;;;;;;;;5012813;28;20057;-71
2023/06/07 00:12:59;;;;;;;23.15;6.13;;;;;;;;;;5012829;28;20021;-71
2023/06/07 00:15:25;;;;;;;25.15;6.38;;;;;;;;;;5012890;28;20033;-72
2023/06/07 00:17:52;;;;;;;23.77;7.00;;;;;;;;;;5013037;28;20080;-72
2023/06/07 00:20:18;;;;;;;26.27;6.90;;;;;;;;;;5012780;28;20420;-72
2023/06/07 00:22:47;;;;;;;33.03;6.60;;;;;;;;;;5012726;28;20034;-72
2023/06/07 00:25:13;;;;;;;23.42;7.10;;;;;;;;;;5012843;28;20091;-72
2023/06/07 00:27:39;;;;;;;21.48;7.07;;;;;;;;;;5013087;28;20499;-72
2023/06/07 00:30:06;;;;;;;23.42;6.40;;;;;;;;;;5014616;28;20104;-72
2023/06/07 00:32:32;;;;;;;19.45;7.07;;;;;;;;;;5014016;28;20095;-73
2023/06/07 00:34:58;;;;;;;27.42;6.72;;;;;;;;;;5014619;28;20029;-72
2023/06/07 00:37:24;;;;;;;26.60;7.32;;;;;;;;;;5014551;28;20107;-71
2023/06/07 00:39:50;;;;;;;26.80;7.93;;;;;;;;;;5013124;28;20030;-71
2023/06/07 00:42:16;;;;;;;27.92;6.78;;;;;;;;;;5012212;28;20022;-71
2023/06/07 00:44:42;;;;;;;30.73;7.63;;;;;;;;;;5012442;28;20395;-72
2023/06/07 00:47:08;;;;;;;27.75;7.90;;;;;;;;;;5012595;28;20021;-72
2023/06/07 00:49:34;;;;;;;26.83;7.20;;;;;;;;;;5012413;28;20475;-71
2023/06/07 00:52:00;;;;;;;28.40;6.85;;;;;;;;;;5011874;28;20042;-71
2023/06/07 00:54:27;;;;;;;22.38;6.90;;;;;;;;;;5012336;28;20061;-71
2023/06/07 00:56:54;;;;;;;26.38;7.50;;;;;;;;;;5013160;28;20183;-73
2023/06/07 00:59:21;;;;;;;29.25;7.60;;;;;;;;;;5014169;28;20022;-73
2023/06/07 01:01:55;;;;;;;25.30;6.80;;;;;;;;;;5014200;28;20460;-72
2023/06/07 01:04:21;;;;;;;22.08;7.18;;;;;;;;;;5012898;28;20087;-71
2023/06/07 01:06:47;;;;;;;20.77;7.25;;;;;;;;;;5012188;28;20361;-71
2023/06/07 01:09:14;;;;;;;26.55;7.75;;;;;;;;;;5011802;28;20037;-70
2023/06/07 01:11:41;;;;;;;26.55;7.80;;;;;;;;;;5011953;28;20026;-72
2023/06/07 01:14:08;;;;;;;23.80;7.18;;;;;;;;;;5012080;28;20145;-71
2023/06/07 01:16:35;;;;;;;25.48;7.60;;;;;;;;;;5012099;28;20025;-70
2023/06/07 01:19:04;;;;;;;32.42;7.65;;;;;;;;;;5011840;28;20109;-70
2023/06/07 01:21:30;;;;;;;23.60;7.78;;;;;;;;;;5012112;28;20044;-71
2023/06/07 01:23:56;;;;;;;24.35;7.80;;;;;;;;;;5011715;28;20498;-72
2023/06/07 01:26:26;;;;;;;27.80;8.23;;;;;;;;;;5011876;28;20040;-71
2023/06/07 01:28:53;;;;;;;24.52;7.90;;;;;;;;;;5011949;28;20479;-71
2023/06/07 01:31:21;;;;;;;22.77;7.78;;;;;;;;;;5011741;28;20041;-71
2023/06/07 01:33:47;;;;;;;34.28;8.63;;;;;;;;;;5011661;28;20368;-71
2023/06/07 01:36:14;;;;;;;26.67;7.90;;;;;;;;;;5011770;28;20446;-71
2023/06/07 01:38:41;;;;;;;33.35;8.73;;;;;;;;;;5011696;28;20021;-71
2023/06/07 01:41:08;;;;;;;23.33;7.65;;;;;;;;;;5011513;28;20026;-71
2023/06/07 01:43:34;;;;;;;20.13;7.95;;;;;;;;;;5027657;28;20030;-71
2023/06/07 01:46:00;;;;;;;32.78;8.82;;;;;;;;;;5015502;28;20034;-72
2023/06/07 01:48:26;;;;;;;27.88;9.30;;;;;;;;;;5015712;28;20034;-71
2023/06/07 01:50:52;;;;;;;38.33;8.60;;;;;;;;;;5015504;28;20038;-71
2023/06/07 01:53:18;;;;;;;29.02;8.43;;;;;;;;;;5015706;28;20026;-72
2023/06/07 01:55:44;;;;;;;30.70;8.80;;;;;;;;;;5016640;28;20025;-72
2023/06/07 01:58:29;;;;;;;33.47;9.00;;;;;;;;;;5015442;28;20030;-71
2023/06/07 02:01:01;;;;;;;31.92;9.05;;;;;;;;;;5015619;28;20036;-71
2023/06/07 02:03:30;;;;;;;29.05;7.93;;;;;;;;;;5015867;28;20104;-70
2023/06/07 02:05:59;;;;;;;26.15;8.52;;;;;;;;;;5016561;28;20506;-72
2023/06/07 02:08:30;;;;;;;25.48;8.75;;;;;;;;;;5016305;28;20093;-71
2023/06/07 02:10:57;;;;;;;33.53;10.30;;;;;;;;;;5019736;28;20030;-73
2023/06/07 02:13:24;;;;;;;29.85;9.30;;;;;;;;;;5021587;28;20029;-73
2023/06/07 02:15:50;;;;;;;29.55;8.98;;;;;;;;;;5015352;28;20041;-71
2023/06/07 02:18:19;;;;;;;24.75;8.85;;;;;;;;;;5014054;28;20399;-72
2023/06/07 02:20:45;;;;;;;35.78;9.65;;;;;;;;;;5013970;28;20022;-72
2023/06/07 02:23:11;;;;;;;32.30;9.00;;;;;;;;;;5012670;28;20040;-72
2023/06/07 02:25:37;;;;;;;25.80;8.82;;;;;;;;;;5013959;28;20064;-72
2023/06/07 02:28:03;;;;;;;28.60;8.60;;;;;;;;;;5014119;28;20037;-73
2023/06/07 02:30:29;;;;;;;23.30;8.52;;;;;;;;;;5014124;28;20033;-72
2023/06/07 02:32:55;;;;;;;31.92;8.98;;;;;;;;;;5013384;28;20022;-73
2023/06/07 02:35:22;;;;;;;32.88;8.43;;;;;;;;;;5013753;28;20428;-72
2023/06/07 02:37:48;;;;;;;28.60;9.07;;;;;;;;;;5015468;28;20018;-71
2023/06/07 02:40:15;;;;;;;24.67;8.73;;;;;;;;;;5014164;28;20029;-73
2023/06/07 02:42:44;;;;;;;36.83;9.57;;;;;;;;;;5012458;28;20471;-70
2023/06/07 02:45:11;;;;;;;29.83;9.07;;;;;;;;;;5013802;28;20514;-72
2023/06/07 02:47:37;;;;;;;41.45;13.35;;;;;;;;;;5013185;28;20148;-72
2023/06/07 02:50:03;;;;;;;34.47;10.52;;;;;;;;;;5012265;28;20456;-71
2023/06/07 02:52:29;;;;;;;33.03;10.07;;;;;;;;;;5012828;28;20026;-70
2023/06/07 02:54:55;;;;;;;27.40;9.57;;;;;;;;;;5012209;28;20018;-71
2023/06/07 02:57:21;;;;;;;31.73;9.05;;;;;;;;;;5014032;28;20404;-72
2023/06/07 02:59:48;;;;;;;31.60;8.88;;;;;;;;;;5014421;28;20018;-72
2023/06/07 03:02:14;;;;;;;33.17;9.48;;;;;;;;;;5013794;28;20427;-72
2023/06/07 03:04:43;;;;;;;36.05;9.35;;;;;;;;;;5014760;28;20408;-72
2023/06/07 03:07:09;;;;;;;38.78;9.95;;;;;;;;;;5013186;28;20014;-71
2023/06/07 03:09:35;;;;;;;34.33;10.13;;;;;;;;;;5012974;28;20084;-71
2023/06/07 03:12:01;;;;;;;34.15;10.20;;;;;;;;;;5012042;28;20029;-70
2023/06/07 03:14:27;;;;;;;30.67;9.60;;;;;;;;;;5012564;28;20113;-71
2023/06/07 03:16:54;;;;;;;28.60;9.50;;;;;;;;;;5013095;28;20080;-71
2023/06/07 03:19:20;;;;;;;31.02;9.88;;;;;;;;;;5014357;28;20017;-71
2023/06/07 03:21:46;;;;;;;27.58;9.63;;;;;;;;;;5015984;28;20057;-70
2023/06/07 03:24:12;;;;;;;25.80;8.35;;;;;;;;;;5012803;28;20030;-70
2023/06/07 03:26:39;;;;;;;31.45;9.10;;;;;;;;;;5013562;28;20057;-71
2023/06/07 03:29:05;;;;;;;37.08;9.45;;;;;;;;;;5014547;28;20066;-72
2023/06/07 03:31:31;;;;;;;40.95;9.80;;;;;;;;;;5014808;28;20030;-71
2023/06/07 03:33:57;;;;;;;32.92;9.85;;;;;;;;;;5014428;28;20022;-71
2023/06/07 03:36:28;;;;;;;31.25;9.30;;;;;;;;;;5013609;28;20037;-71
2023/06/07 03:38:58;;;;;;;37.42;9.45;;;;;;;;;;5014012;28;20018;-71
2023/06/07 03:41:25;;;;;;;31.80;8.43;;;;;;;;;;5013668;28;20040;-72
2023/06/07 03:43:51;;;;;;;31.60;8.90;;;;;;;;;;5013308;28;20029;-71
2023/06/07 03:46:17;;;;;;;31.65;9.95;;;;;;;;;;5014704;28;20041;-71
2023/06/07 03:48:43;;;;;;;35.90;8.98;;;;;;;;;;5014510;28;20022;-71
2023/06/07 03:51:10;;;;;;;29.15;8.98;;;;;;;;;;5012768;28;20368;-72
2023/06/07 03:53:36;;;;;;;35.10;9.23;;;;;;;;;;5012964;28;20340;-70
2023/06/07 03:56:02;;;;;;;31.33;9.95;;;;;;;;;;5013299;28;20042;-71
2023/06/07 03:58:28;;;;;;;31.88;9.80;;;;;;;;;;5013546;28;20446;-71
2023/06/07 04:00:54;;;;;;;34.65;9.48;;;;;;;;;;5013430;28;20060;-72
2023/06/07 04:03:24;;;;;;;35.20;10.63;;;;;;;;;;5012887;28;20030;-72
2023/06/07 04:05:50;;;;;;;32.90;10.57;;;;;;;;;;5013092;28;20114;-70
2023/06/07 04:08:16;;;;;;;33.88;9.77;;;;;;;;;;5013259;28;20026;-71
2023/06/07 04:10:42;;;;;;;31.90;9.73;;;;;;;;;;5012788;28;20037;-72
2023/06/07 04:13:08;;;;;;;21.55;9.43;;;;;;;;;;5014990;28;20387;-72
2023/06/07 04:15:34;;;;;;;19.38;8.18;;;;;;;;;;5013869;28;20029;-71
2023/06/07 04:18:00;;;;;;;17.83;9.68;;;;;;;;;;5013034;28;20014;-72
2023/06/07 04:20:26;;;;;;;22.80;9.25;;;;;;;;;;5012983;28;20033;-75
2023/06/07 04:22:52;;;;;;;18.98;8.75;;;;;;;;;;5012610;28;20379;-72
2023/06/07 04:25:21;;;;;;;22.02;9.23;;;;;;;;;;5012720;28;20037;-71
2023/06/07 04:27:48;;;;;;;26.50;10.65;;;;;;;;;;5011807;28;20087;-76
2023/06/07 04:30:15;;;;;;;31.08;10.38;;;;;;;;;;5014994;28;20038;-76
2023/06/07 04:32:43;;;;;;;20.73;9.27;;;;;;;;;;5016978;28;20084;-75
2023/06/07 04:35:09;;;;;;;23.17;10.15;;;;;;;;;;5015878;28;20021;-75
2023/06/07 04:37:36;;;;;;;23.60;9.60;;;;;;;;;;5016138;28;20041;-74
2023/06/07 04:40:03;;;;;;;20.80;9.52;;;;;;;;;;5019067;28;20036;-75
2023/06/07 04:42:29;;;;;;;19.38;9.43;;;;;;;;;;5022267;28;20069;-76
2023/06/07 04:44:55;;;;;;;17.02;8.57;;;;;;;;;;5023858;28;20030;-76
2023/06/07 04:47:24;;;;;;;18.60;9.23;;;;;;;;;;5017864;28;20030;-78
2023/06/07 04:49:51;;;;;;;17.70;8.43;;;;;;;;;;5016088;28;20542;-77
2023/06/07 04:52:19;;;;;;;16.45;8.55;;;;;;;;;;5013917;28;20025;-76
2023/06/07 04:54:46;;;;;;;20.42;9.40;;;;;;;;;;5012962;28;20018;-70
2023/06/07 04:57:13;;;;;;;20.00;8.55;;;;;;;;;;5016016;28;20368;-72
2023/06/07 04:59:44;;;;;;;24.92;12.70;;;;;;;;;;5013803;28;20395;-71
2023/06/07 05:02:10;;;;;;;14.77;8.95;;;;;;;;;;5012838;28;20025;-70
2023/06/07 05:04:38;;;;;;;21.27;9.73;;;;;;;;;;5012565;28;20084;-72
2023/06/07 05:07:04;;;;;;;14.35;8.05;;;;;;;;;;5012690;28;20017;-74
2023/06/07 05:09:30;;;;;;;19.63;9.75;;;;;;;;;;5015041;28;20037;-76
2023/06/07 05:11:56;;;;;;;23.90;10.00;;;;;;;;;;5032042;28;20030;-72
2023/06/07 05:14:22;;;;;;;21.27;9.38;;;;;;;;;;5012601;28;20030;-70
2023/06/07 05:16:48;;;;;;;17.35;9.10;;;;;;;;;;5011977;28;20037;-71
2023/06/07 05:19:16;;;;;;;19.42;9.40;;;;;;;;;;5008712;28;20053;-73
2023/06/07 05:21:42;;;;;;;18.20;9.25;;;;;;;;;;5011428;28;20025;-72
2023/06/07 05:24:08;;;;;;;16.70;8.98;;;;;;;;;;5006237;28;20026;-74
2023/06/07 05:26:34;;;;;;;14.15;8.70;;;;;;;;;;5011451;28;20060;-73
2023/06/07 05:29:00;;;;;;;16.50;10.20;;;;;;;;;;5009119;28;20512;-74
2023/06/07 05:31:27;;;;;;;14.95;8.52;;;;;;;;;;5010907;28;20033;-74
2023/06/07 05:33:53;;;;;;;19.55;9.40;;;;;;;;;;5011857;28;20044;-72
2023/06/07 05:36:20;;;;;;;17.25;8.82;;;;;;;;;;5011819;28;20034;-72
2023/06/07 05:38:46;;;;;;;17.65;8.55;;;;;;;;;;5011863;28;20098;-73
2023/06/07 05:41:11;;;;;;;23.08;12.00;;;;;;;;;;5011604;28;20034;-72
2023/06/07 05:43:38;;;;;;;17.95;10.07;;;;;;;;;;5011486;28;20100;-73
2023/06/07 05:46:04;;;;;;;17.83;10.75;;;;;;;;;;5011581;28;20080;-73
2023/06/07 05:48:30;;;;;;;22.65;11.40;;;;;;;;;;5012019;28;20026;-74
2023/06/07 05:50:57;;;;;;;21.88;12.90;;;;;;;;;;5011247;28;20032;-75
2023/06/07 05:53:23;;;;;;;25.33;14.38;;;;;;;;;;5011107;28;20073;-74
2023/06/07 05:55:49;;;;;;;25.67;15.52;;;;;;;;;;5026745;28;20100;-74
2023/06/07 05:58:15;;;;;;;24.67;14.52;;;;;;;;;;5011675;28;20022;-74
2023/06/07 06:00:44;;;;;;;28.02;16.75;;;;;;;;;;5011300;28;20101;-75
2023/06/07 06:03:10;;;;;;;26.38;16.20;;;;;;;;;;5011225;28;20025;-74
2023/06/07 06:05:36;;;;;;;23.17;13.43;;;;;;;;;;5012073;28;20022;-73
2023/06/07 06:08:02;;;;;;;41.17;22.63;;;;;;;;;;5011528;28;20403;-73
2023/06/07 06:10:28;;;;;;;53.92;28.98;;;;;;;;;;5011088;28;20025;-73
2023/06/07 06:12:55;;;;;;;49.95;25.63;;;;;;;;;;5011895;28;20025;-71
2023/06/07 06:15:22;;;;;;;40.03;21.83;;;;;;;;;;5014603;28;20022;-71
2023/06/07 06:17:51;;;;;;;36.80;19.98;;;;;;;;;;5013553;28;20022;-70
2023/06/07 06:20:17;;;;;;;36.88;19.55;;;;;;;;;;5012750;28;20494;-70
2023/06/07 06:22:43;;;;;;;45.97;14.57;;;;;;;;;;5011631;28;20114;-71
2023/06/07 06:25:11;;;;;;;29.17;11.68;;;;;;;;;;5011345;28;20080;-70
2023/06/07 06:27:38;;;;;;;28.67;11.65;;;;;;;;;;5011262;28;20116;-71
2023/06/07 06:30:05;;;;;;;25.52;12.77;;;;;;;;;;5014319;28;20554;-71
2023/06/07 06:32:31;;;;;;;32.40;13.52;;;;;;;;;;5016215;28;20117;-71
2023/06/07 06:34:57;;;;;;;28.52;13.40;;;;;;;;;;5016056;28;20069;-71
2023/06/07 06:37:23;;;;;;;26.08;12.65;;;;;;;;;;5019311;28;20048;-70
2023/06/07 06:39:51;;;;;;;32.78;13.68;;;;;;;;;;5016842;28;20038;-71
2023/06/07 06:42:17;;;;;;;31.63;13.32;;;;;;;;;;5016799;28;20026;-72
2023/06/07 06:44:43;;;;;;;34.78;13.38;;;;;;;;;;5017558;28;20053;-71
2023/06/07 06:47:09;;;;;;;52.15;12.55;;;;;;;;;;5018601;28;20062;-71
2023/06/07 06:49:35;;;;;;;32.97;12.75;;;;;;;;;;5015295;28;20531;-72
2023/06/07 06:52:01;;;;;;;25.40;12.05;;;;;;;;;;5013085;28;20073;-71
2023/06/07 06:54:27;;;;;;;31.75;12.70;;;;;;;;;;5014099;28;20092;-71
2023/06/07 06:56:53;;;;;;;36.05;11.07;;;;;;;;;;5014175;28;20691;-71
2023/06/07 06:59:19;;;;;;;30.02;11.00;;;;;;;;;;5014052;28;20026;-71
2023/06/07 07:01:46;;;;;;;34.75;9.82;;;;;;;;;;5016042;28;20036;-70
2023/06/07 07:04:13;;;;;;;26.17;9.82;;;;;;;;;;5017246;28;20030;-70
2023/06/07 07:06:39;;;;;;;31.17;10.65;;;;;;;;;;5015484;28;20030;-72
2023/06/07 07:09:05;;;;;;;26.35;10.75;;;;;;;;;;5015203;28;20033;-72
2023/06/07 07:11:31;;;;;;;28.42;10.32;;;;;;;;;;5014267;28;20399;-74
2023/06/07 07:13:57;;;;;;;30.40;10.65;;;;;;;;;;5014837;28;20022;-70
2023/06/07 07:16:23;;;;;;;25.25;9.55;;;;;;;;;;5014428;28;20026;-72
2023/06/07 07:18:49;;;;;;;31.90;9.38;;;;;;;;;;5013505;28;20486;-71
2023/06/07 07:21:15;;;;;;;29.25;9.40;;;;;;;;;;5014385;28;20026;-72
2023/06/07 07:23:41;;;;;;;25.40;9.63;;;;;;;;;;5013405;28;20030;-71
2023/06/07 07:26:07;;;;;;;28.38;9.35;;;;;;;;;;5013000;28;20053;-72
2023/06/07 07:28:33;;;;;;;33.33;10.35;;;;;;;;;;5012457;28;20084;-73
2023/06/07 07:30:59;;;;;;;28.80;9.55;;;;;;;;;;5014709;28;20420;-72
2023/06/07 07:33:25;;;;;;;28.10;10.02;;;;;;;;;;5014331;28;20022;-72
2023/06/07 07:35:52;;;;;;;26.23;9.18;;;;;;;;;;5014628;28;20080;-72
2023/06/07 07:38:18;;;;;;;23.10;8.82;;;;;;;;;;5013289;28;20025;-72
2023/06/07 07:40:44;;;;;;;24.00;8.55;;;;;;;;;;5012374;28;20070;-72
2023/06/07 07:43:10;;;;;;;31.15;9.63;;;;;;;;;;5010317;28;20076;-72
2023/06/07 07:45:37;;;;;;;24.58;8.63;;;;;;;;;;5014832;28;20026;-72
2023/06/07 07:48:04;;;;;;;28.23;9.52;;;;;;;;;;5028140;28;20021;-72
2023/06/07 07:50:30;;;;;;;35.28;9.90;;;;;;;;;;5017756;28;20041;-72
2023/06/07 07:52:56;;;;;;;22.63;9.20;;;;;;;;;;5012737;28;20449;-71
2023/06/07 07:55:23;;;;;;;29.75;9.48;;;;;;;;;;5013324;28;20109;-71
2023/06/07 07:57:49;;;;;;;44.58;18.30;;;;;;;;;;5013572;28;20036;-70
2023/06/07 08:00:16;;;;;;;31.55;10.63;;;;;;;;;;5012963;28;20030;-71
2023/06/07 08:02:42;;;;;;;25.55;9.70;;;;;;;;;;5012722;28;20101;-71
2023/06/07 08:05:08;;;;;;;38.53;12.95;;;;;;;;;;5013280;28;20053;-71
2023/06/07 08:07:34;;;;;;;37.35;11.45;;;;;;;;;;5013324;28;20026;-71
2023/06/07 08:10:00;;;;;;;25.55;9.75;;;;;;;;;;5012612;28;20041;-71
2023/06/07 08:12:26;;;;;;;24.08;10.13;;;;;;;;;;5012437;28;20044;-71
2023/06/07 08:14:52;;;;;;;24.67;9.98;;;;;;;;;;5012978;28;20452;-71
2023/06/07 08:17:20;;;;;;;23.48;9.00;;;;;;;;;;5013035;28;20076;-71
2023/06/07 08:19:46;;;;;;;30.95;9.15;;;;;;;;;;5013381;28;20021;-72
2023/06/07 08:22:12;;;;;;;29.23;8.98;;;;;;;;;;5012741;28;20053;-71
2023/06/07 08:24:38;;;;;;;24.38;8.15;;;;;;;;;;5014891;28;20491;-72
2023/06/07 08:27:04;;;;;;;25.23;8.25;;;;;;;;;;5018778;28;20031;-73
2023/06/07 08:29:30;;;;;;;25.30;8.80;;;;;;;;;;5017823;28;20036;-71
2023/06/07 08:31:57;;;;;;;27.58;9.13;;;;;;;;;;5013374;28;20510;-73
2023/06/07 08:34:29;;;;;;;24.92;9.27;;;;;;;;;;5013080;28;20144;-70
2023/06/07 08:36:55;;;;;;;24.27;9.35;;;;;;;;;;5013105;28;20029;-71
2023/06/07 08:39:22;;;;;;;23.30;7.60;;;;;;;;;;5013144;28;20018;-70
2023/06/07 08:41:49;;;;;;;28.42;8.95;;;;;;;;;;5012280;28;20022;-70
2023/06/07 08:44:15;;;;;;;22.73;7.53;;;;;;;;;;5012346;28;20026;-70
2023/06/07 08:46:42;;;;;;;25.92;8.48;;;;;;;;;;5012516;28;20506;-71
2023/06/07 08:49:11;;;;;;;23.90;9.48;;;;;;;;;;5012120;28;20041;-71
2023/06/07 08:51:37;;;;;;;17.95;7.38;;;;;;;;;;5011808;28;20506;-70
2023/06/07 08:54:04;;;;;;;22.08;7.35;;;;;;;;;;5010976;28;20018;-71
2023/06/07 08:56:31;;;;;;;24.85;7.53;;;;;;;;;;5012662;28;20442;-70
2023/06/07 08:58:57;;;;;;;19.73;6.60;;;;;;;;;;5012120;28;20068;-71
2023/06/07 09:01:23;;;;;;;34.38;7.93;;;;;;;;;;5012199;28;20087;-70
2023/06/07 09:03:51;;;;;;;21.17;8.38;;;;;;;;;;5011756;28;20096;-70
2023/06/07 09:06:18;;;;;;;31.95;8.88;;;;;;;;;;5012564;28;20507;-71
2023/06/07 09:08:44;;;;;;;25.95;8.25;;;;;;;;;;5012286;28;20026;-73
2023/06/07 09:11:10;;;;;;;23.95;8.05;;;;;;;;;;5012133;28;20034;-73
2023/06/07 09:13:39;;;;;;;20.85;7.15;;;;;;;;;;5009082;28;20018;-71
2023/06/07 09:16:05;;;;;;;27.45;7.93;;;;;;;;;;5012239;28;20026;-70
2023/06/07 09:18:44;;;;;;;24.52;7.85;;;;;;;;;;5019433;28;20438;-72
2023/06/07 09:21:22;;;;;;;27.60;8.75;;;;;;;;;;5032035;28;20029;-72
2023/06/07 09:23:49;;;;;;;22.02;7.65;;;;;;;;;;5031442;28;20029;-72
2023/06/07 09:26:19;;;;;;;21.73;8.73;;;;;;;;;;5032099;28;20080;-72
2023/06/07 09:28:47;;;;;;;25.60;8.93;;;;;;;;;;5031828;28;20099;-73
2023/06/07 09:31:13;;;;;;;22.83;8.65;;;;;;;;;;5031866;28;20026;-71
2023/06/07 09:33:40;;;;;;;22.83;8.32;;;;;;;;;;5031685;28;20021;-71
2023/06/07 09:36:06;;;;;;;25.55;8.30;;;;;;;;;;5032153;28;20018;-71
2023/06/07 09:38:33;;;;;;;26.17;8.48;;;;;;;;;;5032027;28;20017;-71
2023/06/07 09:40:59;;;;;;;29.15;7.60;;;;;;;;;;5032132;28;20030;-71
2023/06/07 09:43:25;;;;;;;19.48;7.25;;;;;;;;;;5032647;28;20064;-71
2023/06/07 09:45:55;;;;;;;24.45;8.57;;;;;;;;;;5032163;28;20036;-71
2023/06/07 09:48:21;;;;;;;25.13;8.23;;;;;;;;;;5032200;28;20089;-71
2023/06/07 09:50:56;;;;;;;20.73;7.95;;;;;;;;;;5031316;28;20570;-71
2023/06/07 09:53:22;;;;;;;22.73;8.05;;;;;;;;;;5031411;28;20025;-72
2023/06/07 09:55:48;;;;;;;16.73;7.35;;;;;;;;;;5031515;28;20483;-71
2023/06/07 09:58:22;;;;;;;22.05;7.10;;;;;;;;;;5031268;28;20026;-72
2023/06/07 10:00:48;;;;;;;22.13;6.70;;;;;;;;;;5031603;28;20021;-71
2023/06/07 10:03:16;;;;;;;29.88;6.40;;;;;;;;;;5031157;28;20026;-71
2023/06/07 10:05:42;;;;;;;19.02;5.88;;;;;;;;;;5034378;28;20036;-72
2023/06/07 10:08:09;;;;;;;24.70;6.63;;;;;;;;;;5035437;28;20032;-71
2023/06/07 10:10:36;;;;;;;21.45;5.68;;;;;;;;;;5035936;28;20441;-70
2023/06/07 10:13:05;;;;;;;24.35;6.07;;;;;;;;;;5035883;28;20026;-70
2023/06/07 10:15:32;;;;;;;24.25;5.43;;;;;;;;;;5035923;28;20022;-72
2023/06/07 10:18:07;;;;;;;22.50;5.18;;;;;;;;;;5035141;28;20032;-72
2023/06/07 10:20:35;;;;;;;19.58;4.70;;;;;;;;;;5035074;28;20029;-70
2023/06/07 10:23:05;;;;;;;20.58;4.88;;;;;;;;;;5034708;28;20037;-70
2023/06/07 10:25:37;;;;;;;19.20;4.93;;;;;;;;;;5034970;28;20029;-73
2023/06/07 10:28:09;;;;;;;16.38;4.88;;;;;;;;;;5035016;28;20100;-70
2023/06/07 10:30:36;;;;;;;19.63;5.63;;;;;;;;;;5035089;28;20086;-75
2023/06/07 10:33:06;;;;;;;17.75;5.22;;;;;;;;;;5034136;28;20021;-71
2023/06/07 10:35:33;;;;;;;21.30;4.88;;;;;;;;;;5036561;28;20017;-71
2023/06/07 10:37:59;;;;;;;16.05;5.15;;;;;;;;;;5035330;28;20022;-71
2023/06/07 10:40:25;;;;;;;19.27;5.13;;;;;;;;;;5035275;28;20026;-70
2023/06/07 10:42:52;;;;;;;16.17;4.75;;;;;;;;;;5034616;28;20029;-71
2023/06/07 10:45:19;;;;;;;19.67;4.97;;;;;;;;;;5035553;28;20424;-71
2023/06/07 10:47:46;;;;;;;20.58;4.95;;;;;;;;;;5035922;28;20033;-71
2023/06/07 10:50:27;;;;;;;23.80;5.72;;;;;;;;;;5035840;28;20588;-71
2023/06/07 10:53:00;;;;;;;15.90;4.40;;;;;;;;;;5036119;28;20021;-72
2023/06/07 10:55:27;;;;;;;17.17;4.55;;;;;;;;;;5034660;28;20278;-71
2023/06/07 10:57:53;;;;;;;17.60;4.45;;;;;;;;;;5035856;28;20045;-71
2023/06/07 11:00:28;;;;;;;15.80;4.57;;;;;;;;;;5039435;28;20156;-71
2023/06/07 11:03:09;;;;;;;16.77;4.90;;;;;;;;;;5040984;28;20048;-71
2023/06/07 11:05:53;;;;;;;23.13;4.82;;;;;;;;;;5038001;28;20048;-71
2023/06/07 11:08:29;;;;;;;22.05;4.57;;;;;;;;;;5035317;28;20025;-71
2023/06/07 11:11:00;;;;;;;17.33;5.40;;;;;;;;;;5035307;28;20032;-71
2023/06/07 11:13:26;;;;;;;15.77;4.90;;;;;;;;;;5035162;28;20014;-72
2023/06/07 11:15:52;;;;;;;17.63;4.63;;;;;;;;;;5034395;28;20026;-72
2023/06/07 11:18:18;;;;;;;16.45;4.40;;;;;;;;;;5035918;28;20033;-71
2023/06/07 11:20:45;;;;;;;16.45;4.25;;;;;;;;;;5035748;28;20037;-72
2023/06/07 11:23:20;;;;;;;17.38;5.25;;;;;;;;;;5037426;28;20033;-72
2023/06/07 11:25:46;;;;;;;14.85;4.63;;;;;;;;;;5036868;28;20021;-71
2023/06/07 11:28:13;;;;;;;10.70;3.88;;;;;;;;;;5035792;28;20025;-72
2023/06/07 11:30:42;;;;;;;20.05;4.32;;;;;;;;;;5037039;28;20026;-74
2023/06/07 11:33:09;;;;;;;19.38;4.15;;;;;;;;;;5038560;28;20017;-72
2023/06/07 11:35:35;;;;;;;16.65;4.55;;;;;;;;;;5039114;28;20017;-71
2023/06/07 11:38:05;;;;;;;15.10;4.45;;;;;;;;;;5035818;28;20032;-72
2023/06/07 11:40:31;;;;;;;17.30;4.05;;;;;;;;;;5034948;28;20025;-71
2023/06/07 11:42:57;;;;;;;14.35;5.20;;;;;;;;;;5035055;28;20029;-72
2023/06/07 11:45:23;;;;;;;13.93;4.53;;;;;;;;;;5034135;28;20021;-72
2023/06/07 11:47:49;;;;;;;14.70;4.00;;;;;;;;;;5034782;28;20034;-74
2023/06/07 11:50:16;;;;;;;14.38;4.07;;;;;;;;;;5034368;28;20112;-72
2023/06/07 11:52:42;;;;;;;11.45;4.20;;;;;;;;;;5033898;28;20013;-72
2023/06/07 11:55:08;;;;;;;20.25;4.55;;;;;;;;;;5034081;28;20091;-73
2023/06/07 11:57:38;;;;;;;12.02;3.97;;;;;;;;;;5033887;28;20026;-71
2023/06/07 12:00:14;;;;;;;12.30;3.90;;;;;;;;;;5033760;28;20030;-73
2023/06/07 12:02:41;;;;;;;17.38;4.68;;;;;;;;;;5034403;28;20025;-74
2023/06/07 12:05:11;;;;;;;23.40;4.97;;;;;;;;;;5035258;28;20049;-71
2023/06/07 12:07:42;;;;;;;17.50;4.25;;;;;;;;;;5035849;28;20170;-72
2023/06/07 12:10:08;;;;;;;14.95;4.10;;;;;;;;;;5033864;28;20503;-75
2023/06/07 12:12:39;;;;;;;17.27;4.57;;;;;;;;;;5035723;28;20030;-75
2023/06/07 12:15:05;;;;;;;15.55;4.28;;;;;;;;;;5034384;28;20021;-72
2023/06/07 12:17:35;;;;;;;17.13;3.80;;;;;;;;;;5034127;28;20029;-72
2023/06/07 12:20:14;;;;;;;19.48;5.05;;;;;;;;;;5033746;28;20018;-72
2023/06/07 12:22:40;;;;;;;18.90;4.55;;;;;;;;;;5032894;28;20013;-71
2023/06/07 12:25:18;;;;;;;16.35;4.30;;;;;;;;;;5033415;28;20030;-72
2023/06/07 12:27:47;;;;;;;17.05;4.25;;;;;;;;;;5033902;28;20025;-75
2023/06/07 12:30:14;;;;;;;16.67;4.50;;;;;;;;;;5034558;28;20463;-74
2023/06/07 12:32:40;;;;;;;21.30;4.40;;;;;;;;;;5034191;28;20021;-72
2023/06/07 12:35:06;;;;;;;19.05;4.35;;;;;;;;;;5034018;28;20403;-72
2023/06/07 12:37:35;;;;;;;17.00;4.38;;;;;;;;;;5033725;28;20021;-73
2023/06/07 12:40:05;;;;;;;14.82;4.07;;;;;;;;;;5034602;28;20068;-73
2023/06/07 12:42:32;;;;;;;17.25;4.47;;;;;;;;;;5035399;28;20068;-73
2023/06/07 12:44:58;;;;;;;20.40;4.95;;;;;;;;;;5035071;28;20029;-71
2023/06/07 12:47:24;;;;;;;18.00;4.90;;;;;;;;;;5032512;28;20535;-72
2023/06/07 12:49:51;;;;;;;15.45;5.22;;;;;;;;;;5032322;28;20117;-73
2023/06/07 12:52:17;;;;;;;15.20;4.95;;;;;;;;;;5032010;28;20457;-71
2023/06/07 12:54:43;;;;;;;23.85;4.72;;;;;;;;;;5032519;28;20470;-72
2023/06/07 12:57:09;;;;;;;35.13;5.35;;;;;;;;;;5032608;28;20090;-72
2023/06/07 12:59:35;;;;;;;20.23;5.00;;;;;;;;;;5032794;28;20033;-73
2023/06/07 13:02:02;;;;;;;18.13;4.57;;;;;;;;;;5033559;28;20479;-71
2023/06/07 13:04:27;;;;;;;13.57;4.68;;;;;;;;;;5034379;28;20028;-75
2023/06/07 13:06:53;;;;;;;17.90;4.93;;;;;;;;;;5033929;28;20097;-76
2023/06/07 13:09:20;;;;;;;14.25;6.35;;;;;;;;;;5034236;28;20606;-74
2023/06/07 13:11:46;;;;;;;21.70;5.22;;;;;;;;;;5037301;28;20072;-71
2023/06/07 13:14:13;;;;;;;14.05;4.78;;;;;;;;;;5043144;28;20021;-72
2023/06/07 13:16:39;;;;;;;16.35;4.70;;;;;;;;;;5036047;28;20506;-72
2023/06/07 13:19:05;;;;;;;11.48;4.47;;;;;;;;;;5032991;28;20018;-75
2023/06/07 13:21:31;;;;;;;15.07;4.90;;;;;;;;;;5033354;28;20055;-74
2023/06/07 13:23:57;;;;;;;20.65;5.05;;;;;;;;;;5033113;28;20025;-74
2023/06/07 13:26:24;;;;;;;13.82;5.07;;;;;;;;;;5032932;28;20029;-74
2023/06/07 13:28:50;;;;;;;18.17;5.57;;;;;;;;;;5032743;28;20036;-73
2023/06/07 13:31:16;;;;;;;14.40;4.57;;;;;;;;;;5033636;28;20112;-73
2023/06/07 13:33:43;;;;;;;18.48;6.03;;;;;;;;;;5032949;28;20021;-72
2023/06/07 13:36:09;;;;;;;17.67;5.45;;;;;;;;;;5032695;28;20100;-72
2023/06/07 13:38:36;;;;;;;12.98;4.43;;;;;;;;;;5032655;28;20403;-71
2023/06/07 13:41:02;;;;;;;18.80;5.28;;;;;;;;;;5037804;28;20478;-72
2023/06/07 13:43:28;;;;;;;15.38;4.97;;;;;;;;;;5038340;28;20072;-72
2023/06/07 13:45:54;;;;;;;16.20;4.80;;;;;;;;;;5038650;28;20034;-72
2023/06/07 13:48:21;;;;;;;16.50;4.40;;;;;;;;;;5038698;28;20029;-72
2023/06/07 13:50:50;;;;;;;16.80;4.55;;;;;;;;;;5041191;28;20101;-79
2023/06/07 13:53:17;;;;;;;14.90;4.57;;;;;;;;;;5040935;28;20029;-74
2023/06/07 13:55:43;;;;;;;17.55;4.43;;;;;;;;;;5034714;28;20017;-73
2023/06/07 13:58:09;;;;;;;15.30;6.18;;;;;;;;;;5019316;28;20030;-73
2023/06/07 14:00:35;;;;;;;23.27;7.50;;;;;;;;;;5018464;28;20105;-72
2023/06/07 14:03:02;;;;;;;21.38;5.38;;;;;;;;;;5021442;28;20072;-72
2023/06/07 14:05:29;;;;;;;19.73;5.13;;;;;;;;;;5023516;28;20089;-73
2023/06/07 14:07:55;;;;;;;17.90;5.28;;;;;;;;;;5023921;28;20029;-73
2023/06/07 14:10:21;;;;;;;18.92;4.53;;;;;;;;;;5023106;28;20038;-74
2023/06/07 14:12:47;;;;;;;20.00;4.50;;;;;;;;;;5019728;28;20049;-73
2023/06/07 14:15:13;;;;;;;12.75;4.55;;;;;;;;;;5019134;28;20022;-73
2023/06/07 14:17:40;;;;;;;17.92;5.05;;;;;;;;;;5018770;28;20030;-73
2023/06/07 14:20:07;;;;;;;16.67;4.50;;;;;;;;;;5019266;28;20028;-73
2023/06/07 14:22:34;;;;;;;18.55;5.22;;;;;;;;;;5018371;28;20487;-71
2023/06/07 14:25:00;;;;;;;18.13;4.47;;;;;;;;;;5019185;28;20395;-75
2023/06/07 14:27:25;;;;;;;15.95;4.25;;;;;;;;;;5018715;28;20030;-77